createdAt,value
2023-04-18T05:00:21.027Z,9.75
2023-04-18T05:02:53.661Z,4.55
2023-04-18T05:05:20.778Z,6.38
2023-04-18T05:07:47.894Z,5.57
2023-04-18T05:10:14.940Z,4.65
2023-04-18T05:12:41.852Z,4.55
2023-04-18T05:15:09.132Z,6.90
2023-04-18T05:17:36.132Z,4.82
2023-04-18T05:20:04.216Z,4.00
2023-04-18T05:22:32.941Z,4.50
2023-04-18T05:24:59.921Z,3.95
2023-04-18T05:27:27.229Z,3.88
2023-04-18T05:29:54.270Z,4.07
2023-04-18T05:32:21.626Z,4.72
2023-04-18T05:34:48.900Z,3.55
2023-04-18T05:37:15.929Z,3.17
2023-04-18T05:39:42.923Z,6.40
2023-04-18T05:42:09.824Z,3.92
2023-04-18T05:44:37.298Z,3.95
2023-04-18T05:47:06.906Z,3.47
2023-04-18T05:49:33.893Z,3.75
2023-04-18T05:52:00.869Z,3.50
2023-04-18T05:54:27.871Z,4.57
2023-04-18T05:56:55.363Z,3.95
2023-04-18T05:59:22.267Z,5.72
2023-04-18T06:01:49.625Z,3.83
2023-04-18T06:04:17.217Z,5.55
2023-04-18T06:06:44.430Z,5.10
2023-04-18T06:09:11.676Z,5.72
2023-04-18T06:11:38.540Z,4.85
2023-04-18T06:14:05.444Z,4.43
2023-04-18T06:16:32.354Z,3.80
2023-04-18T06:19:01.290Z,4.63
2023-04-18T06:21:28.410Z,6.15
2023-04-18T06:23:55.413Z,4.43
2023-04-18T06:26:22.601Z,5.55
2023-04-18T06:28:49.466Z,5.38
2023-04-18T06:31:17.649Z,11.45
2023-04-18T06:33:44.485Z,8.20
2023-04-18T06:36:11.425Z,4.85
2023-04-18T06:38:38.342Z,7.28
2023-04-18T06:41:05.314Z,5.28
2023-04-18T06:43:32.297Z,4.07
2023-04-18T06:45:59.614Z,4.45
2023-04-18T06:48:26.526Z,4.22
2023-04-18T06:50:53.488Z,5.22
2023-04-18T06:53:20.554Z,5.00
2023-04-18T06:55:47.693Z,5.15
2023-04-18T06:58:16.291Z,4.95
2023-04-18T07:00:43.771Z,4.00
2023-04-18T07:03:13.612Z,5.68
2023-04-18T07:05:40.812Z,4.53
2023-04-18T07:08:08.047Z,5.05
2023-04-18T07:10:35.046Z,4.65
2023-04-18T07:13:01.995Z,3.35
2023-04-18T07:15:29.072Z,7.93
2023-04-18T07:17:56.683Z,4.97
2023-04-18T07:20:23.641Z,5.97
2023-04-18T07:22:50.539Z,4.32
2023-04-18T07:25:17.465Z,4.40
2023-04-18T07:27:44.368Z,5.03
2023-04-18T07:30:11.982Z,3.78
2023-04-18T07:32:38.961Z,6.97
2023-04-18T07:35:06.276Z,4.72
2023-04-18T07:37:33.221Z,5.43
2023-04-18T07:40:00.056Z,3.88
2023-04-18T07:42:27.249Z,4.55
2023-04-18T07:45:00.041Z,6.05
2023-04-18T07:47:30.416Z,4.43
2023-04-18T07:49:57.910Z,4.88
2023-04-18T07:52:24.813Z,9.43
2023-04-18T07:54:51.778Z,5.03
2023-04-18T07:57:18.652Z,4.65
2023-04-18T07:59:45.588Z,3.83
2023-04-18T08:02:12.610Z,4.68
2023-04-18T08:04:39.768Z,5.15
2023-04-18T08:07:06.844Z,9.75
2023-04-18T08:09:34.417Z,6.10
2023-04-18T08:12:01.392Z,4.57
2023-04-18T08:14:28.229Z,4.38
2023-04-18T08:16:55.317Z,3.78
2023-04-18T08:19:22.289Z,3.80
2023-04-18T08:21:51.170Z,4.22
2023-04-18T08:24:18.195Z,3.83
2023-04-18T08:26:45.602Z,3.67
2023-04-18T08:29:13.037Z,4.68
2023-04-18T08:31:40.511Z,6.72
2023-04-18T08:34:07.448Z,4.10
2023-04-18T08:36:35.618Z,4.35
2023-04-18T08:39:02.696Z,5.38
2023-04-18T08:41:33.975Z,8.45
2023-04-18T08:44:01.238Z,6.03
2023-04-18T08:46:30.060Z,5.40
2023-04-18T08:49:00.509Z,4.30
2023-04-18T08:51:30.868Z,4.10
2023-04-18T08:53:57.976Z,4.72
2023-04-18T08:56:27.349Z,3.67
2023-04-18T08:58:56.072Z,4.63
2023-04-18T09:01:23.282Z,4.15
2023-04-18T09:03:51.246Z,3.88
2023-04-18T09:06:21.091Z,3.97
2023-04-18T09:09:02.665Z,3.90
2023-04-18T09:11:31.803Z,4.25
2023-04-18T09:13:59.137Z,3.92
2023-04-18T09:16:27.841Z,3.97
2023-04-18T09:19:18.565Z,4.10
2023-04-18T09:21:48.976Z,4.25
2023-04-18T09:24:21.221Z,3.50
2023-04-18T09:26:49.909Z,4.68
2023-04-18T09:29:18.696Z,4.95
2023-04-18T09:31:57.586Z,4.03
2023-04-18T09:34:25.150Z,4.10
2023-04-18T09:37:09.160Z,5.07
2023-04-18T09:39:38.677Z,4.78
2023-04-18T09:42:06.144Z,4.43
2023-04-18T09:44:33.127Z,3.60
2023-04-18T09:47:01.041Z,4.30
2023-04-18T09:49:28.206Z,3.58
2023-04-18T09:51:56.027Z,3.90
2023-04-18T09:54:24.698Z,3.92
2023-04-18T09:56:54.039Z,3.20
2023-04-18T09:59:34.646Z,4.55
2023-04-18T10:02:04.036Z,4.25
2023-04-18T10:04:32.762Z,4.63
2023-04-18T10:07:00.808Z,4.10
2023-04-18T10:09:33.317Z,5.45
2023-04-18T10:12:02.301Z,6.18
2023-04-18T10:14:32.998Z,5.10
2023-04-18T10:17:00.195Z,4.65
2023-04-18T10:19:29.654Z,4.35
2023-04-18T10:21:58.371Z,4.63
2023-04-18T10:24:53.701Z,4.18
2023-04-18T10:27:48.939Z,4.63
2023-04-18T10:30:17.440Z,4.18
2023-04-18T10:32:46.855Z,4.55
2023-04-18T10:35:13.865Z,3.50
2023-04-18T10:37:59.731Z,4.03
2023-04-18T10:40:35.491Z,2.92
2023-04-18T10:43:02.689Z,3.40
2023-04-18T10:45:32.592Z,4.22
2023-04-18T10:48:23.132Z,3.83
2023-04-18T10:51:18.776Z,3.70
2023-04-18T10:53:57.767Z,3.97
2023-04-18T10:56:26.156Z,4.53
2023-04-18T10:58:53.864Z,3.88
2023-04-18T11:01:31.184Z,4.13
2023-04-18T11:04:00.468Z,4.82
2023-04-18T11:06:27.826Z,3.70
2023-04-18T11:09:25.521Z,3.25
2023-04-18T11:12:06.836Z,5.00
2023-04-18T11:14:41.154Z,6.95
2023-04-18T11:17:18.926Z,3.70
2023-04-18T11:19:46.325Z,4.03
2023-04-18T11:22:14.094Z,4.05
2023-04-18T11:24:41.338Z,4.30
2023-04-18T11:27:12.453Z,3.72
2023-04-18T11:29:39.382Z,3.47
2023-04-18T11:32:07.797Z,4.00
2023-04-18T11:34:35.993Z,4.20
2023-04-18T11:37:07.103Z,4.25
2023-04-18T11:39:43.436Z,4.40
2023-04-18T11:42:10.592Z,4.40
2023-04-18T11:44:39.940Z,3.40
2023-04-18T11:47:29.054Z,4.25
2023-04-18T11:49:57.735Z,3.40
2023-04-18T11:52:26.249Z,3.83
2023-04-18T11:54:53.334Z,4.43
2023-04-18T11:57:28.192Z,3.13
2023-04-18T11:59:57.674Z,4.00
2023-04-18T12:02:40.194Z,2.88
2023-04-18T12:05:07.881Z,3.50
2023-04-18T12:07:43.173Z,4.72
2023-04-18T12:10:24.714Z,3.40
2023-04-18T12:12:53.749Z,3.10
2023-04-18T12:15:24.062Z,3.00
2023-04-18T12:17:53.843Z,2.40
2023-04-18T12:20:24.865Z,2.33
2023-04-18T12:22:53.086Z,2.60
2023-04-18T12:25:27.285Z,2.58
2023-04-18T12:28:15.797Z,2.40
2023-04-18T12:30:42.763Z,2.05
2023-04-18T12:33:09.653Z,2.03
2023-04-18T12:35:36.824Z,2.22
2023-04-18T12:38:04.747Z,1.92
2023-04-18T12:40:31.707Z,1.83
2023-04-18T12:42:58.557Z,1.60
2023-04-18T12:45:25.821Z,2.10
2023-04-18T12:47:53.519Z,1.52
2023-04-18T12:50:22.945Z,1.80
2023-04-18T12:52:53.747Z,2.00
2023-04-18T12:55:22.756Z,1.73
2023-04-18T12:57:51.770Z,2.08
2023-04-18T13:00:18.659Z,1.98
2023-04-18T13:02:46.170Z,1.38
2023-04-18T13:05:15.642Z,2.17
2023-04-18T13:07:43.160Z,1.80
2023-04-18T13:10:14.970Z,1.98
2023-04-18T13:12:42.070Z,1.70
2023-04-18T13:15:09.815Z,1.75
2023-04-18T13:17:40.230Z,2.03
2023-04-18T13:20:12.516Z,2.15
2023-04-18T13:22:40.601Z,1.90
2023-04-18T13:25:10.439Z,1.60
2023-04-18T13:27:41.389Z,1.73
2023-04-18T13:30:10.748Z,1.67
2023-04-18T13:32:39.169Z,1.67
2023-04-18T13:35:09.163Z,1.48
2023-04-18T13:37:36.787Z,1.40
2023-04-18T13:40:07.979Z,1.63
2023-04-18T13:42:36.961Z,1.55
2023-04-18T13:45:04.417Z,1.20
2023-04-18T13:47:31.478Z,1.40
2023-04-18T13:49:58.559Z,1.55
2023-04-18T13:52:26.145Z,1.33
2023-04-18T13:54:53.268Z,1.60
2023-04-18T13:57:20.321Z,1.40
2023-04-18T13:59:47.214Z,1.52
2023-04-18T14:02:14.434Z,1.40
2023-04-18T14:04:41.608Z,1.40
2023-04-18T14:07:09.205Z,1.20
2023-04-18T14:09:36.184Z,1.10
2023-04-18T14:12:03.130Z,1.27
2023-04-18T14:14:30.436Z,1.30
2023-04-18T14:16:57.423Z,1.83
2023-04-18T14:19:24.400Z,1.60
2023-04-18T14:21:51.365Z,1.42
2023-04-18T14:24:18.270Z,1.33
2023-04-18T14:26:45.164Z,1.40
2023-04-18T14:29:12.166Z,1.20
2023-04-18T14:31:39.278Z,1.15
2023-04-18T14:34:08.411Z,1.40
2023-04-18T14:36:35.426Z,1.40
2023-04-18T14:39:02.706Z,1.27
2023-04-18T14:41:29.562Z,1.10
2023-04-18T14:43:56.639Z,1.40
2023-04-18T14:46:23.603Z,1.23
2023-04-18T14:48:51.016Z,1.35
2023-04-18T14:51:18.147Z,1.23
2023-04-18T14:53:45.623Z,1.10
2023-04-18T14:56:12.644Z,0.90
2023-04-18T14:58:39.567Z,1.10
2023-04-18T15:01:06.565Z,0.90
2023-04-18T15:03:34.128Z,1.30
2023-04-18T15:06:01.136Z,1.48
2023-04-18T15:08:28.169Z,1.30
2023-04-18T15:10:55.041Z,1.55
2023-04-18T15:13:21.983Z,1.35
2023-04-18T15:15:53.589Z,1.02
2023-04-18T15:18:20.646Z,1.35
2023-04-18T15:20:47.654Z,1.27
2023-04-18T15:23:15.119Z,1.20
2023-04-18T15:25:43.799Z,0.98
2023-04-18T15:28:12.239Z,0.98
2023-04-18T15:30:39.388Z,1.23
2023-04-18T15:33:06.323Z,1.00
2023-04-18T15:35:33.321Z,0.88
2023-04-18T15:38:00.346Z,1.23
2023-04-18T15:40:27.314Z,1.23
2023-04-18T15:42:54.538Z,1.00
2023-04-18T15:45:22.127Z,1.30
2023-04-18T15:47:49.094Z,1.30
2023-04-18T15:50:18.800Z,1.50
2023-04-18T15:52:45.818Z,1.30
2023-04-18T15:55:13.327Z,1.00
2023-04-18T15:57:41.896Z,1.20
2023-04-18T16:00:17.424Z,1.40
2023-04-18T16:02:45.624Z,1.25
2023-04-18T16:05:13.490Z,1.30
2023-04-18T16:07:41.428Z,1.33
2023-04-18T16:10:10.563Z,1.15
2023-04-18T16:12:38.636Z,1.48
2023-04-18T16:15:07.040Z,1.48
2023-04-18T16:17:34.397Z,1.20
2023-04-18T16:20:01.423Z,1.77
2023-04-18T16:22:28.404Z,1.10
2023-04-18T16:24:59.300Z,1.40
2023-04-18T16:27:26.244Z,1.42
2023-04-18T16:29:53.858Z,1.58
2023-04-18T16:32:21.235Z,1.40
2023-04-18T16:34:48.558Z,1.30
2023-04-18T16:37:16.236Z,1.30
2023-04-18T16:39:43.589Z,1.23
2023-04-18T16:42:10.554Z,1.40
2023-04-18T16:44:39.371Z,1.33
2023-04-18T16:47:08.363Z,1.00
2023-04-18T16:49:35.788Z,1.60
2023-04-18T16:52:02.771Z,1.50
2023-04-18T16:54:30.186Z,1.33
2023-04-18T16:56:57.190Z,0.90
2023-04-18T16:59:24.269Z,1.40
2023-04-18T17:01:51.443Z,1.10
2023-04-18T17:04:18.564Z,1.27
2023-04-18T17:06:45.630Z,1.38
2023-04-18T17:09:14.729Z,1.40
2023-04-18T17:11:42.014Z,1.35
2023-04-18T17:14:09.485Z,1.10
2023-04-18T17:16:38.679Z,1.40
2023-04-18T17:19:06.471Z,1.30
2023-04-18T17:21:36.886Z,1.35
2023-04-18T17:24:06.799Z,1.27
2023-04-18T17:26:34.552Z,1.42
2023-04-18T17:29:03.281Z,1.75
2023-04-18T17:31:31.405Z,1.45
2023-04-18T17:33:59.457Z,1.25
2023-04-18T17:36:26.468Z,1.35
2023-04-18T17:38:53.464Z,1.38
2023-04-18T17:41:21.848Z,1.40
2023-04-18T17:43:51.059Z,1.30
2023-04-18T17:46:18.317Z,1.20
2023-04-18T17:48:45.439Z,0.93
2023-04-18T17:51:12.465Z,1.52
2023-04-18T17:53:39.325Z,1.40
2023-04-18T17:56:06.325Z,1.10
2023-04-18T17:58:33.197Z,1.42
2023-04-18T18:01:00.333Z,1.38
2023-04-18T18:03:27.637Z,1.23
2023-04-18T18:05:58.200Z,1.70
2023-04-18T18:08:25.770Z,1.63
2023-04-18T18:10:52.695Z,1.30
2023-04-18T18:13:19.610Z,1.20
2023-04-18T18:15:46.504Z,1.17
2023-04-18T18:18:13.384Z,1.30
2023-04-18T18:20:45.786Z,1.85
2023-04-18T18:23:12.688Z,1.30
2023-04-18T18:25:40.292Z,1.40
2023-04-18T18:28:07.329Z,1.50
2023-04-18T18:30:34.679Z,1.60
2023-04-18T18:33:01.963Z,1.50
2023-04-18T18:35:29.912Z,1.80
2023-04-18T18:37:56.818Z,1.42
2023-04-18T18:40:23.947Z,1.55
2023-04-18T18:42:53.126Z,1.88
2023-04-18T18:45:21.276Z,1.30
2023-04-18T18:47:48.842Z,3.05
2023-04-18T18:50:15.948Z,1.30
2023-04-18T18:52:45.894Z,1.30
2023-04-18T18:55:12.839Z,1.35
2023-04-18T18:57:39.754Z,1.90
2023-04-18T19:00:11.276Z,1.48
2023-04-18T19:02:39.349Z,1.58
2023-04-18T19:05:06.929Z,1.75
2023-04-18T19:07:35.342Z,1.65
2023-04-18T19:10:02.250Z,2.10
2023-04-18T19:12:29.398Z,1.63
2023-04-18T19:14:56.418Z,1.63
2023-04-18T19:17:24.868Z,1.60
2023-04-18T19:19:53.040Z,1.42
2023-04-18T19:22:19.943Z,1.23
2023-04-18T19:24:46.991Z,1.40
2023-04-18T19:27:14.392Z,1.50
2023-04-18T19:29:41.435Z,1.55
2023-04-18T19:32:08.413Z,1.40
2023-04-18T19:34:35.711Z,1.73
2023-04-18T19:37:02.618Z,2.15
2023-04-18T19:39:29.824Z,1.92
2023-04-18T19:41:57.040Z,1.92
2023-04-18T19:44:24.514Z,1.25
2023-04-18T19:46:51.440Z,1.60
2023-04-18T19:49:18.469Z,1.40
2023-04-18T19:51:45.356Z,1.70
2023-04-18T19:54:12.358Z,1.85
2023-04-18T19:56:39.233Z,1.42
2023-04-18T19:59:06.243Z,1.27
2023-04-18T20:01:33.211Z,1.30
2023-04-18T20:04:00.718Z,1.38
2023-04-18T20:06:28.182Z,1.30
2023-04-18T20:08:55.282Z,1.77
2023-04-18T20:11:22.375Z,2.53
2023-04-18T20:13:52.369Z,1.50
2023-04-18T20:16:19.387Z,1.42
2023-04-18T20:18:47.520Z,1.60
2023-04-18T20:21:14.660Z,1.80
2023-04-18T20:23:42.749Z,1.95
2023-04-18T20:26:09.763Z,1.40
2023-04-18T20:28:37.933Z,1.95
2023-04-18T20:31:05.362Z,1.55
2023-04-18T20:33:33.469Z,1.60
2023-04-18T20:36:00.670Z,1.50
2023-04-18T20:38:29.719Z,1.20
2023-04-18T20:40:58.928Z,1.55
2023-04-18T20:43:26.050Z,1.63
2023-04-18T20:45:54.499Z,1.38
2023-04-18T20:48:22.514Z,1.48
2023-04-18T20:50:52.902Z,1.98
2023-04-18T20:53:21.050Z,1.30
2023-04-18T20:55:49.162Z,1.10
2023-04-18T20:58:16.123Z,1.30
2023-04-18T21:00:44.608Z,1.30
2023-04-18T21:03:15.204Z,1.48
2023-04-18T21:05:44.292Z,1.00
2023-04-18T21:08:11.563Z,1.88
2023-04-18T21:10:38.570Z,1.52
2023-04-18T21:13:05.557Z,1.48
2023-04-18T21:15:32.445Z,1.60
2023-04-18T21:17:59.457Z,1.20
2023-04-18T21:20:28.064Z,1.40
2023-04-18T21:22:55.001Z,1.33
2023-04-18T21:25:21.934Z,1.30
2023-04-18T21:27:50.936Z,1.25
2023-04-18T21:30:18.152Z,1.38
2023-04-18T21:32:47.373Z,1.70
2023-04-18T21:35:16.092Z,1.10
2023-04-18T21:37:44.263Z,1.50
2023-04-18T21:40:11.460Z,1.20
2023-04-18T21:42:38.432Z,1.30
2023-04-18T21:45:06.402Z,1.23
2023-04-18T21:47:34.869Z,1.00
2023-04-18T21:50:01.854Z,1.25
2023-04-18T21:52:28.725Z,1.75
2023-04-18T21:54:56.178Z,1.30
2023-04-18T21:57:23.528Z,1.00
2023-04-18T21:59:50.387Z,1.33
2023-04-18T22:02:17.404Z,1.42
2023-04-18T22:04:44.366Z,1.58
2023-04-18T22:07:15.623Z,1.35
2023-04-18T22:09:43.477Z,1.50
2023-04-18T22:12:10.320Z,1.13
2023-04-18T22:14:37.267Z,2.10
2023-04-18T22:17:04.911Z,1.13
2023-04-18T22:19:32.505Z,1.55
2023-04-18T22:21:59.401Z,1.40
2023-04-18T22:24:26.284Z,1.30
2023-04-18T22:26:53.435Z,1.30
2023-04-18T22:29:21.090Z,1.63
2023-04-18T22:31:48.028Z,1.45
2023-04-18T22:34:15.532Z,1.40
2023-04-18T22:36:43.568Z,1.20
2023-04-18T22:39:12.220Z,1.50
2023-04-18T22:41:39.120Z,1.20
2023-04-18T22:44:05.988Z,1.55
2023-04-18T22:46:33.011Z,1.58
2023-04-18T22:48:59.978Z,1.33
2023-04-18T22:51:28.715Z,1.38
2023-04-18T22:53:56.390Z,1.52
2023-04-18T22:56:23.403Z,1.40
2023-04-18T22:58:50.313Z,1.25
2023-04-18T23:01:17.281Z,1.35
2023-04-18T23:03:44.489Z,1.65
2023-04-18T23:06:11.468Z,1.60
2023-04-18T23:08:38.346Z,1.88
2023-04-18T23:11:05.353Z,1.65
2023-04-18T23:13:32.251Z,1.48
2023-04-18T23:15:59.215Z,1.33
2023-04-18T23:18:28.464Z,1.08
2023-04-18T23:20:55.517Z,1.90
2023-04-18T23:23:22.389Z,2.05
2023-04-18T23:25:52.785Z,1.90
2023-04-18T23:28:19.723Z,1.75
2023-04-18T23:30:48.293Z,1.95
2023-04-18T23:33:15.376Z,1.80
2023-04-18T23:35:42.928Z,1.65
2023-04-18T23:38:09.876Z,1.58
2023-04-18T23:40:36.750Z,1.00
2023-04-18T23:43:03.754Z,1.40
2023-04-18T23:45:31.122Z,1.90
2023-04-18T23:47:58.038Z,1.90
2023-04-18T23:50:25.067Z,1.30
2023-04-18T23:52:52.256Z,1.98
2023-04-18T23:55:19.143Z,2.20
2023-04-18T23:57:46.045Z,2.38
